createdAt,value
2022-11-27T00:00:14.038Z,102525.75
2022-11-27T00:04:21.790Z,102523.75
2022-11-27T00:08:25.157Z,102509.75
2022-11-27T00:12:26.674Z,102518.13
2022-11-27T00:16:28.578Z,102516.69
2022-11-27T00:20:30.201Z,102512.59
2022-11-27T00:24:31.658Z,102520.22
2022-11-27T00:28:33.974Z,102522.06
2022-11-27T00:32:35.457Z,102523.81
2022-11-27T00:36:37.811Z,102521.28
2022-11-27T00:40:39.236Z,102527.72
2022-11-27T00:44:40.867Z,102523.97
2022-11-27T00:48:43.226Z,102528.09
2022-11-27T00:52:44.724Z,102513.38
2022-11-27T00:56:46.183Z,102507.66
2022-11-27T01:00:54.876Z,102517.59
2022-11-27T01:04:56.425Z,102509.59
2022-11-27T01:08:59.191Z,102503.00
2022-11-27T01:13:00.683Z,102509.38
2022-11-27T01:17:02.290Z,102494.28
2022-11-27T01:21:04.424Z,102477.75
2022-11-27T01:25:06.482Z,102485.03
2022-11-27T01:29:08.110Z,102479.72
2022-11-27T01:33:09.519Z,102482.78
2022-11-27T01:37:10.944Z,102486.72
2022-11-27T01:41:27.602Z,102469.88
2022-11-27T01:45:29.175Z,102462.63
2022-11-27T01:49:52.779Z,102455.97
2022-11-27T01:53:54.720Z,102444.09
2022-11-27T01:58:05.382Z,102443.22
2022-11-27T02:02:07.103Z,102437.78
2022-11-27T02:06:12.862Z,102432.56
2022-11-27T02:10:16.131Z,102435.25
2022-11-27T02:14:29.840Z,102430.69
2022-11-27T02:18:43.409Z,102428.03
2022-11-27T02:23:29.608Z,102437.00
2022-11-27T02:28:05.111Z,102437.53
2022-11-27T02:32:16.830Z,102443.06
2022-11-27T02:36:23.380Z,102449.59
2022-11-27T02:40:36.087Z,102462.06
2022-11-27T02:44:44.470Z,102454.63
2022-11-27T02:48:53.193Z,102458.69
2022-11-27T02:53:00.185Z,102464.13
2022-11-27T02:57:04.900Z,102469.16
2022-11-27T03:01:08.302Z,102459.84
2022-11-27T03:05:14.545Z,102460.50
2022-11-27T03:09:25.106Z,102454.88
2022-11-27T03:13:27.756Z,102448.53
2022-11-27T03:17:41.149Z,102448.81
2022-11-27T03:21:47.646Z,102445.88
2022-11-27T03:25:49.219Z,102446.72
2022-11-27T03:29:58.080Z,102440.38
2022-11-27T03:33:59.597Z,102445.00
2022-11-27T03:38:01.103Z,102434.00
2022-11-27T03:42:08.601Z,102434.03
2022-11-27T03:46:23.687Z,102437.84
2022-11-27T03:50:46.766Z,102431.34
2022-11-27T03:55:01.292Z,102441.25
2022-11-27T03:59:25.360Z,102430.00
2022-11-27T04:03:29.071Z,102432.47
2022-11-27T04:07:30.679Z,102436.56
2022-11-27T04:11:32.286Z,102437.69
2022-11-27T04:15:33.699Z,102434.13
2022-11-27T04:19:35.228Z,102426.44
2022-11-27T04:23:38.433Z,102422.03
2022-11-27T04:27:39.951Z,102429.19
2022-11-27T04:31:41.460Z,102435.53
2022-11-27T04:35:43.362Z,102426.72
2022-11-27T04:39:44.792Z,102426.69
2022-11-27T04:43:46.221Z,102426.66
2022-11-27T04:47:47.941Z,102423.38
2022-11-27T04:51:49.427Z,102427.72
2022-11-27T04:55:52.309Z,102420.03
2022-11-27T04:59:53.783Z,102421.94
2022-11-27T05:03:55.228Z,102415.13
2022-11-27T05:07:56.756Z,102406.09
2022-11-27T05:11:58.294Z,102412.41
2022-11-27T05:16:00.069Z,102410.47
2022-11-27T05:20:01.549Z,102408.03
2022-11-27T05:24:03.182Z,102414.91
2022-11-27T05:28:04.979Z,102420.13
2022-11-27T05:32:06.469Z,102414.66
2022-11-27T05:36:08.260Z,102422.91
2022-11-27T05:40:10.132Z,102414.13
2022-11-27T05:44:15.249Z,102416.03
2022-11-27T05:48:19.446Z,102417.13
2022-11-27T05:52:20.951Z,102419.59
2022-11-27T05:56:22.432Z,102415.75
2022-11-27T06:00:24.651Z,102393.25
2022-11-27T06:04:31.792Z,102389.13
2022-11-27T06:08:33.306Z,102381.72
2022-11-27T06:12:34.749Z,102374.03
2022-11-27T06:16:39.463Z,102374.31
2022-11-27T06:20:44.638Z,102377.88
2022-11-27T06:24:49.552Z,102368.25
2022-11-27T06:28:51.367Z,102367.44
2022-11-27T06:32:52.853Z,102374.53
2022-11-27T06:37:00.978Z,102369.91
2022-11-27T06:41:12.494Z,102370.19
2022-11-27T06:45:14.060Z,102368.28
2022-11-27T06:49:17.811Z,102378.63
2022-11-27T06:53:22.266Z,102371.78
2022-11-27T06:57:23.769Z,102375.34
2022-11-27T07:01:30.059Z,102382.47
2022-11-27T07:05:31.668Z,102386.06
2022-11-27T07:09:33.124Z,102382.19
2022-11-27T07:13:35.213Z,102374.28
2022-11-27T07:17:37.961Z,102353.97
2022-11-27T07:21:39.632Z,102344.84
2022-11-27T07:25:41.092Z,102351.50
2022-11-27T07:29:44.702Z,102350.13
2022-11-27T07:33:46.185Z,102352.59
2022-11-27T07:37:47.709Z,102348.22
2022-11-27T07:41:49.157Z,102342.75
2022-11-27T07:45:53.212Z,102351.78
2022-11-27T07:49:55.202Z,102350.72
2022-11-27T07:53:57.102Z,102339.47
2022-11-27T07:57:58.566Z,102337.84
2022-11-27T08:02:00.019Z,102333.97
2022-11-27T08:06:05.077Z,102337.81
2022-11-27T08:10:07.854Z,102339.47
2022-11-27T08:14:09.712Z,102335.38
2022-11-27T08:18:11.158Z,102329.31
2022-11-27T08:22:14.448Z,102331.50
2022-11-27T08:26:16.389Z,102331.78
2022-11-27T08:30:17.997Z,102342.47
2022-11-27T08:34:19.466Z,102339.47
2022-11-27T08:38:21.797Z,102333.97
2022-11-27T08:42:23.476Z,102327.88
2022-11-27T08:46:24.993Z,102328.50
2022-11-27T08:50:26.439Z,102324.31
2022-11-27T08:54:27.941Z,102324.25
2022-11-27T08:58:29.405Z,102322.81
2022-11-27T09:02:30.853Z,102324.28
2022-11-27T09:06:34.763Z,102314.97
2022-11-27T09:10:36.885Z,102313.31
2022-11-27T09:14:40.067Z,102311.06
2022-11-27T09:18:44.492Z,102315.91
2022-11-27T09:22:45.993Z,102313.69
2022-11-27T09:26:47.496Z,102312.72
2022-11-27T09:30:49.076Z,102300.41
2022-11-27T09:34:53.461Z,102284.66
2022-11-27T09:38:57.456Z,102292.44
2022-11-27T09:43:09.855Z,102284.38
2022-11-27T09:47:28.247Z,102276.31
2022-11-27T09:51:44.086Z,102267.09
2022-11-27T09:55:51.604Z,102269.53
2022-11-27T09:59:55.015Z,102266.75
2022-11-27T10:03:56.810Z,102266.56
2022-11-27T10:08:23.720Z,102273.38
2022-11-27T10:12:25.151Z,102270.41
2022-11-27T10:16:42.931Z,102268.91
2022-11-27T10:20:52.398Z,102265.09
2022-11-27T10:25:08.056Z,102258.88
2022-11-27T10:29:36.109Z,102261.94
2022-11-27T10:33:53.694Z,102247.06
2022-11-27T10:38:11.369Z,102253.97
2022-11-27T10:42:22.299Z,102253.31
2022-11-27T10:46:37.032Z,102251.09
2022-11-27T10:50:39.693Z,102241.25
2022-11-27T10:54:42.896Z,102235.31
2022-11-27T10:59:04.850Z,102237.66
2022-11-27T11:03:07.190Z,102233.78
2022-11-27T11:07:29.360Z,102234.94
2022-11-27T11:11:30.857Z,102225.69
2022-11-27T11:15:33.214Z,102222.97
2022-11-27T11:19:37.687Z,102240.69
2022-11-27T11:23:40.935Z,102240.69
2022-11-27T11:27:43.886Z,102222.00
2022-11-27T11:31:45.512Z,102222.50
2022-11-27T11:35:55.649Z,102200.44
2022-11-27T11:40:13.170Z,102208.56
2022-11-27T11:44:25.735Z,102205.47
2022-11-27T11:48:28.128Z,102216.00
2022-11-27T11:52:41.673Z,102210.34
2022-11-27T11:56:49.509Z,102208.09
2022-11-27T12:01:28.511Z,102204.59
2022-11-27T12:05:57.228Z,102198.53
2022-11-27T12:10:05.278Z,102183.28
2022-11-27T12:14:27.675Z,102195.63
2022-11-27T12:18:48.691Z,102183.59
2022-11-27T12:23:11.792Z,102170.50
2022-11-27T12:27:39.600Z,102154.78
2022-11-27T12:32:13.265Z,102150.63
2022-11-27T12:36:20.905Z,102144.91
2022-11-27T12:40:28.222Z,102129.91
2022-11-27T12:44:54.593Z,102125.22
2022-11-27T12:49:01.434Z,102111.63
2022-11-27T12:53:15.993Z,102111.31
2022-11-27T12:57:27.323Z,102112.28
2022-11-27T13:01:36.346Z,102097.72
2022-11-27T13:05:55.038Z,102108.03
2022-11-27T13:10:25.662Z,102096.03
2022-11-27T13:14:28.353Z,102100.34
2022-11-27T13:18:37.257Z,102098.25
2022-11-27T13:22:39.167Z,102089.72
2022-11-27T13:26:44.090Z,102075.91
2022-11-27T13:30:47.320Z,102080.91
2022-11-27T13:34:50.751Z,102064.66
2022-11-27T13:38:56.437Z,102070.91
2022-11-27T13:43:05.292Z,102063.38
2022-11-27T13:47:12.120Z,102051.06
2022-11-27T13:51:26.676Z,102043.53
2022-11-27T13:55:31.271Z,102038.53
2022-11-27T13:59:36.443Z,102037.66
2022-11-27T14:03:40.723Z,102030.63
2022-11-27T14:08:00.411Z,102030.91
2022-11-27T14:12:13.418Z,102036.28
2022-11-27T14:16:35.764Z,102032.50
2022-11-27T14:20:47.790Z,102019.22
2022-11-27T14:24:55.807Z,102020.69
2022-11-27T14:28:59.780Z,102027.41
2022-11-27T14:33:05.168Z,102022.81
2022-11-27T14:37:06.745Z,102025.69
2022-11-27T14:41:15.639Z,102019.03
2022-11-27T14:45:20.496Z,102021.81
2022-11-27T14:49:24.867Z,102022.19
2022-11-27T14:53:27.638Z,102025.22
2022-11-27T14:57:30.445Z,102025.75
2022-11-27T15:01:34.523Z,102023.34
2022-11-27T15:05:38.371Z,101999.34
2022-11-27T15:09:44.870Z,102003.97
2022-11-27T15:13:55.001Z,102001.88
2022-11-27T15:17:58.323Z,101999.09
2022-11-27T15:22:00.247Z,102003.25
2022-11-27T15:26:01.866Z,102001.13
2022-11-27T15:30:12.049Z,101992.19
2022-11-27T15:34:13.518Z,101980.97
2022-11-27T15:38:18.141Z,101988.00
2022-11-27T15:42:20.819Z,101988.66
2022-11-27T15:46:30.072Z,101985.06
2022-11-27T15:50:31.918Z,101972.97
2022-11-27T15:54:33.348Z,101969.78
2022-11-27T15:58:34.808Z,101963.16
2022-11-27T16:02:37.703Z,101960.50
2022-11-27T16:06:39.253Z,101963.03
2022-11-27T16:10:41.429Z,101952.56
2022-11-27T16:14:43.042Z,101945.94
2022-11-27T16:18:44.850Z,101943.31
2022-11-27T16:22:46.333Z,101940.94
2022-11-27T16:26:47.991Z,101934.38
2022-11-27T16:30:49.505Z,101934.66
2022-11-27T16:34:51.156Z,101932.44
2022-11-27T16:38:54.507Z,101928.06
2022-11-27T16:42:56.009Z,101928.59
2022-11-27T16:46:57.519Z,101918.56
2022-11-27T16:51:10.099Z,101921.53
2022-11-27T16:55:11.641Z,101923.34
2022-11-27T16:59:14.925Z,101918.78
2022-11-27T17:03:19.737Z,101915.72
2022-11-27T17:07:30.227Z,101912.06
2022-11-27T17:11:33.877Z,101908.97
2022-11-27T17:15:40.357Z,101900.94
2022-11-27T17:19:42.612Z,101891.72
2022-11-27T17:23:46.785Z,101890.53
2022-11-27T17:27:49.038Z,101887.84
2022-11-27T17:31:50.721Z,101892.38
2022-11-27T17:35:52.371Z,101882.88
2022-11-27T17:39:57.104Z,101878.28
2022-11-27T17:44:01.452Z,101873.22
2022-11-27T17:48:02.983Z,101855.00
2022-11-27T17:52:18.833Z,101851.13
2022-11-27T17:56:38.139Z,101844.44
2022-11-27T18:00:44.394Z,101842.56
2022-11-27T18:04:46.132Z,101839.38
2022-11-27T18:08:47.845Z,101836.19
2022-11-27T18:12:49.315Z,101827.34
2022-11-27T18:16:53.677Z,101825.50
2022-11-27T18:20:55.571Z,101818.59
2022-11-27T18:25:03.685Z,101827.56
2022-11-27T18:29:23.998Z,101818.25
2022-11-27T18:37:40.885Z,101809.38
2022-11-27T18:41:48.593Z,101808.53
2022-11-27T18:45:50.253Z,101810.56
2022-11-27T18:49:51.902Z,101815.00
2022-11-27T18:53:56.630Z,101816.06
2022-11-27T18:58:04.265Z,101811.16
2022-11-27T19:02:11.915Z,101807.72
2022-11-27T19:06:16.732Z,101809.16
2022-11-27T19:10:18.506Z,101811.09
2022-11-27T19:14:19.988Z,101798.81
2022-11-27T19:18:21.482Z,101793.91
2022-11-27T19:22:23.084Z,101783.13
2022-11-27T19:30:48.516Z,101787.81
2022-11-27T19:34:51.165Z,101770.19
2022-11-27T19:39:05.008Z,101770.72
2022-11-27T19:43:09.335Z,101768.56
2022-11-27T19:47:18.964Z,101772.28
2022-11-27T19:51:52.289Z,101770.63
2022-11-27T19:55:55.633Z,101766.09
2022-11-27T20:04:34.277Z,101767.22
2022-11-27T20:08:36.195Z,101766.91
2022-11-27T20:12:40.978Z,101772.09
2022-11-27T20:16:42.496Z,101755.53
2022-11-27T20:21:01.664Z,101761.31
2022-11-27T20:25:18.869Z,101752.19
2022-11-27T20:29:23.749Z,101750.84
2022-11-27T20:33:25.887Z,101763.09
2022-11-27T20:42:04.369Z,101763.84
2022-11-27T20:46:13.163Z,101760.03
2022-11-27T20:50:17.630Z,101760.13
2022-11-27T20:58:52.615Z,101744.50
2022-11-27T21:02:54.280Z,101736.13
2022-11-27T21:07:11.543Z,101732.03
2022-11-27T21:11:24.919Z,101718.72
2022-11-27T21:15:26.548Z,101712.09
2022-11-27T21:19:37.175Z,101702.72
2022-11-27T21:23:40.527Z,101710.25
2022-11-27T21:27:59.216Z,101699.69
2022-11-27T21:32:00.843Z,101695.94
2022-11-27T21:36:03.236Z,101694.06
2022-11-27T21:40:10.308Z,101681.66
2022-11-27T21:44:13.224Z,101679.91
2022-11-27T21:48:14.715Z,101681.00
2022-11-27T21:52:16.349Z,101674.63
2022-11-27T21:56:20.268Z,101670.13
2022-11-27T22:00:22.208Z,101667.81
2022-11-27T22:04:27.201Z,101672.53
2022-11-27T22:08:31.362Z,101671.13
2022-11-27T22:12:32.836Z,101673.66
2022-11-27T22:16:41.327Z,101683.66
2022-11-27T22:20:46.116Z,101675.63
2022-11-27T22:24:47.530Z,101668.72
2022-11-27T22:28:49.582Z,101666.75
2022-11-27T22:32:57.428Z,101666.19
2022-11-27T22:36:58.851Z,101670.03
2022-11-27T22:41:00.248Z,101663.75
2022-11-27T22:45:01.822Z,101665.59
2022-11-27T22:49:06.252Z,101663.84
2022-11-27T22:53:07.679Z,101654.88
2022-11-27T22:57:09.140Z,101663.03
2022-11-27T23:01:16.408Z,101660.06
2022-11-27T23:05:17.819Z,101644.94
2022-11-27T23:09:19.386Z,101645.06
2022-11-27T23:13:20.904Z,101637.38
2022-11-27T23:17:22.468Z,101639.34
2022-11-27T23:21:24.541Z,101627.78
2022-11-27T23:25:28.178Z,101629.31
2022-11-27T23:29:29.628Z,101634.50
2022-11-27T23:33:31.075Z,101628.00
2022-11-27T23:37:32.570Z,101615.19
2022-11-27T23:41:34.157Z,101615.78
2022-11-27T23:45:37.913Z,101615.25
2022-11-27T23:49:39.336Z,101607.16
2022-11-27T23:53:41.612Z,101604.78
2022-11-27T23:57:43.096Z,101608.13
